Aérodrome :
LOGIN :

S'inscrire | Disclaimer

   EN    FR    IT 

 










Légende :    VFR   VFR Marginal   IFR   IFR Intensif   IFR Très Intensif
Visi : 
Plafond : 
>= 8 km
>= 3000ft
5 à 8 km
1000 à 3000 ft
1500m à 5 km
500 à 1000 ft
800 à 1500m
200 à 500 ft
< 800m
< 200 ft
Symboles :   Orages  Brouillard  Fortes neiges  Fortes précipitations  Vent > 20 kt
SIGMETs :   Divers  Orages  Givrage  Turbulence  Onde Orograph.  Cendres Volcan.






- Altitude de l'aérodrome : 46 ft
- Code IATA : SNN


EINN - Shannon

DERNIER METAR :
  • 300730Z 24008KT 9999 FEW008 BKN120 09/08 Q1027 NOSIG

METARs EXPIRÉS :
  • 300700Z 23010KT 9999 FEW008 BKN120 09/08 Q1027 NOSIG
  • 300630Z 23011KT 9999 SCT008 BKN130 09/08 Q1027 NOSIG
  • 300600Z 24008KT 9999 FEW006 BKN008 BKN130 09/08 Q1027 BECMG BKN012
  • 300530Z 23006KT 9000 FEW005 BKN007 BKN010 08/08 Q1027 BECMG 9999 BKN012
  • 300500Z 23006KT 8000 FEW004 BKN006 BKN011 08/08 Q1027 BECMG 9999 BKN012

TAF TAF EINN
Valide du 30 à 06h jusqu'au 01 à 06h UTC


300500Z 3006/0106 23008KT 9999 FEW010 BKN020
TEMPO 3006/3007 BKN008
BECMG 3007/3009 SCT008 BKN012
BECMG 3009/3011 26013KT
TEMPO 3011/3015 4000 -DZ BKN008
BECMG 3014/3016 30009KT
BECMG 3015/3017 4000 -DZ BR SCT004 BKN008
PROB30
TEMPO 3019/3023 2500 BKN004
TEMPO 3023/0106 2000 BKN004
PROB30
TEMPO 0100/0106 0700 BKN001



MET'MAP, la Météo Aéronautique d'un coup d'oeil ! - Copyright ORBIFLY Décembre 2007 - Disclaimer

ORBIFLY MET'MAP TEAM :

Programmation & Développement : Alexandra Zaïnal
Sur une idée originale de : Baudouin d'Aumeries
Assistance à la programmation : Marc-Olivier Méhu
Soutien technique & logistique : Manuel Goepfert

Contact : metmap@orbifly.com




SOURCES & CREDITS :

   NOAA